sensor_id;sensor_type;location;lat;lon;timestamp;P1;durP1;ratioP1;P2;durP2;ratioP2
15677;SDS011;7939;50.814;6.368;2024-01-30T00:00:26;9.30;;;6.53;;
15677;SDS011;7939;50.814;6.368;2024-01-30T00:02:53;7.07;;;6.38;;
15677;SDS011;7939;50.814;6.368;2024-01-30T00:05:20;8.73;;;5.50;;
15677;SDS011;7939;50.814;6.368;2024-01-30T00:07:48;6.82;;;5.57;;
15677;SDS011;7939;50.814;6.368;2024-01-30T00:10:14;8.45;;;5.95;;
15677;SDS011;7939;50.814;6.368;2024-01-30T00:12:41;8.65;;;5.97;;
15677;SDS011;7939;50.814;6.368;2024-01-30T00:15:08;6.53;;;5.88;;
15677;SDS011;7939;50.814;6.368;2024-01-30T00:17:35;7.43;;;6.07;;
15677;SDS011;7939;50.814;6.368;2024-01-30T00:20:02;7.80;;;6.15;;
15677;SDS011;7939;50.814;6.368;2024-01-30T00:22:30;9.02;;;7.13;;
15677;SDS011;7939;50.814;6.368;2024-01-30T00:24:58;8.40;;;6.45;;
15677;SDS011;7939;50.814;6.368;2024-01-30T00:27:25;7.80;;;5.38;;
15677;SDS011;7939;50.814;6.368;2024-01-30T00:29:52;8.18;;;5.88;;
15677;SDS011;7939;50.814;6.368;2024-01-30T00:32:19;6.63;;;5.93;;
15677;SDS011;7939;50.814;6.368;2024-01-30T00:34:45;7.45;;;5.00;;
15677;SDS011;7939;50.814;6.368;2024-01-30T00:37:12;6.47;;;5.32;;
15677;SDS011;7939;50.814;6.368;2024-01-30T00:39:39;7.93;;;5.43;;
15677;SDS011;7939;50.814;6.368;2024-01-30T00:42:07;5.97;;;4.55;;
15677;SDS011;7939;50.814;6.368;2024-01-30T00:44:34;6.45;;;4.97;;
15677;SDS011;7939;50.814;6.368;2024-01-30T00:47:02;8.27;;;5.00;;
15677;SDS011;7939;50.814;6.368;2024-01-30T00:49:29;5.15;;;4.20;;
15677;SDS011;7939;50.814;6.368;2024-01-30T00:51:56;6.63;;;4.70;;
15677;SDS011;7939;50.814;6.368;2024-01-30T00:54:22;4.30;;;3.90;;
15677;SDS011;7939;50.814;6.368;2024-01-30T00:56:49;4.45;;;3.67;;
15677;SDS011;7939;50.814;6.368;2024-01-30T00:59:17;4.20;;;3.80;;
15677;SDS011;7939;50.814;6.368;2024-01-30T01:01:44;4.70;;;4.03;;
15677;SDS011;7939;50.814;6.368;2024-01-30T01:04:10;4.80;;;4.18;;
15677;SDS011;7939;50.814;6.368;2024-01-30T01:06:37;7.70;;;5.00;;
15677;SDS011;7939;50.814;6.368;2024-01-30T01:09:04;5.93;;;4.15;;
15677;SDS011;7939;50.814;6.368;2024-01-30T01:11:30;5.90;;;3.95;;
15677;SDS011;7939;50.814;6.368;2024-01-30T01:13:57;7.10;;;3.97;;
15677;SDS011;7939;50.814;6.368;2024-01-30T01:16:25;4.63;;;3.67;;
15677;SDS011;7939;50.814;6.368;2024-01-30T01:18:52;5.10;;;3.97;;
15677;SDS011;7939;50.814;6.368;2024-01-30T01:21:18;4.78;;;4.10;;
15677;SDS011;7939;50.814;6.368;2024-01-30T01:23:45;4.00;;;3.38;;
15677;SDS011;7939;50.814;6.368;2024-01-30T01:26:12;5.97;;;4.18;;
15677;SDS011;7939;50.814;6.368;2024-01-30T01:28:39;5.05;;;4.05;;
15677;SDS011;7939;50.814;6.368;2024-01-30T01:31:06;6.15;;;4.53;;
15677;SDS011;7939;50.814;6.368;2024-01-30T01:33:35;4.18;;;3.80;;
15677;SDS011;7939;50.814;6.368;2024-01-30T01:36:03;5.55;;;4.15;;
15677;SDS011;7939;50.814;6.368;2024-01-30T01:38:30;5.45;;;4.00;;
15677;SDS011;7939;50.814;6.368;2024-01-30T01:40:56;5.05;;;4.22;;
15677;SDS011;7939;50.814;6.368;2024-01-30T01:43:23;5.55;;;4.05;;
15677;SDS011;7939;50.814;6.368;2024-01-30T01:45:50;5.72;;;4.70;;
15677;SDS011;7939;50.814;6.368;2024-01-30T01:48:17;4.85;;;3.75;;
15677;SDS011;7939;50.814;6.368;2024-01-30T01:50:45;5.95;;;4.30;;
15677;SDS011;7939;50.814;6.368;2024-01-30T01:53:12;5.28;;;4.40;;
15677;SDS011;7939;50.814;6.368;2024-01-30T01:55:39;4.47;;;3.60;;
15677;SDS011;7939;50.814;6.368;2024-01-30T01:58:06;6.75;;;4.75;;
15677;SDS011;7939;50.814;6.368;2024-01-30T02:00:35;7.13;;;4.20;;
15677;SDS011;7939;50.814;6.368;2024-01-30T02:03:04;5.90;;;4.80;;
15677;SDS011;7939;50.814;6.368;2024-01-30T02:05:32;5.70;;;4.20;;
15677;SDS011;7939;50.814;6.368;2024-01-30T02:08:01;4.28;;;3.88;;
15677;SDS011;7939;50.814;6.368;2024-01-30T02:10:28;6.65;;;4.53;;
15677;SDS011;7939;50.814;6.368;2024-01-30T02:12:55;5.00;;;4.13;;
15677;SDS011;7939;50.814;6.368;2024-01-30T02:15:21;5.95;;;4.78;;
15677;SDS011;7939;50.814;6.368;2024-01-30T02:17:48;6.72;;;4.55;;
15677;SDS011;7939;50.814;6.368;2024-01-30T02:20:15;5.03;;;4.22;;
15677;SDS011;7939;50.814;6.368;2024-01-30T02:22:43;5.60;;;4.63;;
15677;SDS011;7939;50.814;6.368;2024-01-30T02:25:10;4.63;;;4.20;;
15677;SDS011;7939;50.814;6.368;2024-01-30T02:27:36;7.78;;;5.22;;
15677;SDS011;7939;50.814;6.368;2024-01-30T02:30:04;7.20;;;4.90;;
15677;SDS011;7939;50.814;6.368;2024-01-30T02:32:31;7.30;;;5.00;;
15677;SDS011;7939;50.814;6.368;2024-01-30T02:34:58;8.57;;;4.93;;
15677;SDS011;7939;50.814;6.368;2024-01-30T02:37:24;4.97;;;4.25;;
15677;SDS011;7939;50.814;6.368;2024-01-30T02:39:52;5.13;;;4.50;;
15677;SDS011;7939;50.814;6.368;2024-01-30T02:42:19;4.82;;;3.80;;
15677;SDS011;7939;50.814;6.368;2024-01-30T02:44:46;4.60;;;3.97;;
15677;SDS011;7939;50.814;6.368;2024-01-30T02:47:13;4.05;;;3.65;;
15677;SDS011;7939;50.814;6.368;2024-01-30T02:49:40;6.07;;;3.47;;
15677;SDS011;7939;50.814;6.368;2024-01-30T02:52:06;4.65;;;4.07;;
15677;SDS011;7939;50.814;6.368;2024-01-30T02:54:33;5.05;;;4.38;;
15677;SDS011;7939;50.814;6.368;2024-01-30T02:57:01;5.75;;;4.53;;
15677;SDS011;7939;50.814;6.368;2024-01-30T02:59:28;4.68;;;3.70;;
15677;SDS011;7939;50.814;6.368;2024-01-30T03:01:54;5.32;;;3.50;;
15677;SDS011;7939;50.814;6.368;2024-01-30T03:04:21;4.72;;;3.50;;
15677;SDS011;7939;50.814;6.368;2024-01-30T03:06:48;4.63;;;3.45;;
15677;SDS011;7939;50.814;6.368;2024-01-30T03:09:15;5.00;;;3.60;;
15677;SDS011;7939;50.814;6.368;2024-01-30T03:11:42;5.97;;;4.05;;
15677;SDS011;7939;50.814;6.368;2024-01-30T03:14:10;4.53;;;4.13;;
15677;SDS011;7939;50.814;6.368;2024-01-30T03:16:37;3.88;;;3.17;;
15677;SDS011;7939;50.814;6.368;2024-01-30T03:19:05;4.43;;;3.45;;
15677;SDS011;7939;50.814;6.368;2024-01-30T03:21:34;5.57;;;3.88;;
15677;SDS011;7939;50.814;6.368;2024-01-30T03:24:01;4.30;;;3.88;;
15677;SDS011;7939;50.814;6.368;2024-01-30T03:26:27;5.40;;;3.97;;
15677;SDS011;7939;50.814;6.368;2024-01-30T03:28:54;4.75;;;3.88;;
15677;SDS011;7939;50.814;6.368;2024-01-30T03:31:22;4.05;;;3.65;;
15677;SDS011;7939;50.814;6.368;2024-01-30T03:33:49;4.05;;;3.65;;
15677;SDS011;7939;50.814;6.368;2024-01-30T03:36:16;4.35;;;3.95;;
15677;SDS011;7939;50.814;6.368;2024-01-30T03:38:42;5.70;;;4.60;;
15677;SDS011;7939;50.814;6.368;2024-01-30T03:41:09;6.57;;;5.43;;
15677;SDS011;7939;50.814;6.368;2024-01-30T03:43:36;7.07;;;5.03;;
15677;SDS011;7939;50.814;6.368;2024-01-30T03:46:03;5.65;;;5.03;;
15677;SDS011;7939;50.814;6.368;2024-01-30T03:48:31;6.38;;;4.57;;
15677;SDS011;7939;50.814;6.368;2024-01-30T03:50:58;6.75;;;4.75;;
15677;SDS011;7939;50.814;6.368;2024-01-30T03:53:25;4.25;;;3.83;;
15677;SDS011;7939;50.814;6.368;2024-01-30T03:55:51;5.03;;;4.03;;
15677;SDS011;7939;50.814;6.368;2024-01-30T03:58:18;5.70;;;4.40;;
15677;SDS011;7939;50.814;6.368;2024-01-30T04:00:45;5.25;;;4.00;;
15677;SDS011;7939;50.814;6.368;2024-01-30T04:03:11;5.15;;;4.05;;
15677;SDS011;7939;50.814;6.368;2024-01-30T04:05:39;5.00;;;3.97;;
15677;SDS011;7939;50.814;6.368;2024-01-30T04:08:07;9.38;;;4.95;;
15677;SDS011;7939;50.814;6.368;2024-01-30T04:10:34;6.75;;;4.10;;
15677;SDS011;7939;50.814;6.368;2024-01-30T04:13:01;7.05;;;4.47;;
15677;SDS011;7939;50.814;6.368;2024-01-30T04:15:27;5.78;;;4.80;;
15677;SDS011;7939;50.814;6.368;2024-01-30T04:17:56;6.38;;;4.57;;
15677;SDS011;7939;50.814;6.368;2024-01-30T04:20:24;6.85;;;4.60;;
15677;SDS011;7939;50.814;6.368;2024-01-30T04:22:52;6.20;;;4.55;;
15677;SDS011;7939;50.814;6.368;2024-01-30T04:25:18;5.95;;;4.68;;
15677;SDS011;7939;50.814;6.368;2024-01-30T04:27:45;6.05;;;3.90;;
15677;SDS011;7939;50.814;6.368;2024-01-30T04:30:12;5.15;;;3.95;;
15677;SDS011;7939;50.814;6.368;2024-01-30T04:32:39;5.28;;;4.40;;
15677;SDS011;7939;50.814;6.368;2024-01-30T04:35:06;6.28;;;4.03;;
15677;SDS011;7939;50.814;6.368;2024-01-30T04:37:33;6.70;;;4.82;;
15677;SDS011;7939;50.814;6.368;2024-01-30T04:40:01;6.80;;;4.70;;
15677;SDS011;7939;50.814;6.368;2024-01-30T04:42:28;4.93;;;4.35;;
15677;SDS011;7939;50.814;6.368;2024-01-30T04:44:55;6.20;;;4.13;;
15677;SDS011;7939;50.814;6.368;2024-01-30T04:47:21;7.50;;;4.55;;
15677;SDS011;7939;50.814;6.368;2024-01-30T04:49:48;7.32;;;5.28;;
15677;SDS011;7939;50.814;6.368;2024-01-30T04:52:15;5.35;;;4.13;;
15677;SDS011;7939;50.814;6.368;2024-01-30T04:54:42;6.97;;;5.38;;
15677;SDS011;7939;50.814;6.368;2024-01-30T04:57:10;6.15;;;4.88;;
15677;SDS011;7939;50.814;6.368;2024-01-30T04:59:37;6.57;;;4.35;;
15677;SDS011;7939;50.814;6.368;2024-01-30T05:02:04;7.00;;;4.40;;
15677;SDS011;7939;50.814;6.368;2024-01-30T05:04:31;7.55;;;4.68;;
15677;SDS011;7939;50.814;6.368;2024-01-30T05:06:57;7.20;;;4.30;;
15677;SDS011;7939;50.814;6.368;2024-01-30T05:09:24;6.93;;;5.03;;
15677;SDS011;7939;50.814;6.368;2024-01-30T05:11:51;6.45;;;4.65;;
15677;SDS011;7939;50.814;6.368;2024-01-30T05:14:19;6.03;;;4.95;;
15677;SDS011;7939;50.814;6.368;2024-01-30T05:16:45;7.07;;;4.80;;
15677;SDS011;7939;50.814;6.368;2024-01-30T05:19:13;9.27;;;5.65;;
15677;SDS011;7939;50.814;6.368;2024-01-30T05:21:40;5.95;;;4.60;;
15677;SDS011;7939;50.814;6.368;2024-01-30T05:24:07;5.78;;;5.18;;
15677;SDS011;7939;50.814;6.368;2024-01-30T05:26:35;6.88;;;5.55;;
15677;SDS011;7939;50.814;6.368;2024-01-30T05:29:02;6.68;;;4.68;;
15677;SDS011;7939;50.814;6.368;2024-01-30T05:31:30;7.15;;;4.68;;
15677;SDS011;7939;50.814;6.368;2024-01-30T05:33:57;7.90;;;5.22;;
15677;SDS011;7939;50.814;6.368;2024-01-30T05:36:23;5.45;;;4.95;;
15677;SDS011;7939;50.814;6.368;2024-01-30T05:38:50;6.22;;;4.93;;
15677;SDS011;7939;50.814;6.368;2024-01-30T05:41:17;5.60;;;4.60;;
15677;SDS011;7939;50.814;6.368;2024-01-30T05:43:44;7.82;;;5.03;;
15677;SDS011;7939;50.814;6.368;2024-01-30T05:46:11;8.13;;;5.05;;
15677;SDS011;7939;50.814;6.368;2024-01-30T05:48:39;4.95;;;4.47;;
15677;SDS011;7939;50.814;6.368;2024-01-30T05:51:06;6.30;;;4.47;;
15677;SDS011;7939;50.814;6.368;2024-01-30T05:53:33;8.18;;;5.43;;
15677;SDS011;7939;50.814;6.368;2024-01-30T05:56:01;6.85;;;5.28;;
15677;SDS011;7939;50.814;6.368;2024-01-30T05:58:28;6.95;;;5.22;;
15677;SDS011;7939;50.814;6.368;2024-01-30T06:00:56;6.43;;;5.18;;
15677;SDS011;7939;50.814;6.368;2024-01-30T06:03:23;7.28;;;5.07;;
15677;SDS011;7939;50.814;6.368;2024-01-30T06:05:51;5.47;;;4.85;;
15677;SDS011;7939;50.814;6.368;2024-01-30T06:08:18;7.70;;;5.32;;
15677;SDS011;7939;50.814;6.368;2024-01-30T06:10:45;8.65;;;5.28;;
15677;SDS011;7939;50.814;6.368;2024-01-30T06:13:12;10.45;;;5.57;;
15677;SDS011;7939;50.814;6.368;2024-01-30T06:15:39;7.45;;;5.57;;
15677;SDS011;7939;50.814;6.368;2024-01-30T06:18:06;7.95;;;5.72;;
15677;SDS011;7939;50.814;6.368;2024-01-30T06:20:33;7.85;;;5.47;;
15677;SDS011;7939;50.814;6.368;2024-01-30T06:23:02;7.85;;;5.78;;
15677;SDS011;7939;50.814;6.368;2024-01-30T06:25:28;7.57;;;5.90;;
15677;SDS011;7939;50.814;6.368;2024-01-30T06:27:55;7.63;;;6.15;;
15677;SDS011;7939;50.814;6.368;2024-01-30T06:30:22;10.05;;;6.45;;
15677;SDS011;7939;50.814;6.368;2024-01-30T06:32:49;8.70;;;6.03;;
15677;SDS011;7939;50.814;6.368;2024-01-30T06:35:15;7.53;;;6.35;;
15677;SDS011;7939;50.814;6.368;2024-01-30T06:37:42;10.20;;;5.88;;
15677;SDS011;7939;50.814;6.368;2024-01-30T06:40:11;8.77;;;6.15;;
15677;SDS011;7939;50.814;6.368;2024-01-30T06:42:38;9.10;;;6.47;;
15677;SDS011;7939;50.814;6.368;2024-01-30T06:45:05;8.07;;;6.50;;
15677;SDS011;7939;50.814;6.368;2024-01-30T06:47:33;9.65;;;5.97;;
15677;SDS011;7939;50.814;6.368;2024-01-30T06:49:59;6.85;;;5.43;;
15677;SDS011;7939;50.814;6.368;2024-01-30T06:52:27;8.10;;;6.20;;
15677;SDS011;7939;50.814;6.368;2024-01-30T06:54:53;11.25;;;6.65;;
15677;SDS011;7939;50.814;6.368;2024-01-30T06:57:22;8.90;;;7.30;;
15677;SDS011;7939;50.814;6.368;2024-01-30T06:59:48;9.77;;;6.88;;
15677;SDS011;7939;50.814;6.368;2024-01-30T07:02:15;8.75;;;6.80;;
15677;SDS011;7939;50.814;6.368;2024-01-30T07:04:42;7.90;;;5.85;;
15677;SDS011;7939;50.814;6.368;2024-01-30T07:07:09;8.80;;;6.65;;
15677;SDS011;7939;50.814;6.368;2024-01-30T07:09:37;10.00;;;7.25;;
15677;SDS011;7939;50.814;6.368;2024-01-30T07:12:05;8.55;;;6.03;;
15677;SDS011;7939;50.814;6.368;2024-01-30T07:14:34;10.23;;;6.60;;
15677;SDS011;7939;50.814;6.368;2024-01-30T07:17:00;10.25;;;6.75;;
15677;SDS011;7939;50.814;6.368;2024-01-30T07:19:27;9.55;;;6.63;;
15677;SDS011;7939;50.814;6.368;2024-01-30T07:21:54;10.20;;;5.88;;
15677;SDS011;7939;50.814;6.368;2024-01-30T07:24:21;9.68;;;6.85;;
15677;SDS011;7939;50.814;6.368;2024-01-30T07:26:47;9.05;;;5.65;;
15677;SDS011;7939;50.814;6.368;2024-01-30T07:29:14;9.07;;;6.82;;
15677;SDS011;7939;50.814;6.368;2024-01-30T07:31:42;11.20;;;7.15;;
15677;SDS011;7939;50.814;6.368;2024-01-30T07:34:09;10.63;;;7.22;;
15677;SDS011;7939;50.814;6.368;2024-01-30T07:36:35;8.43;;;6.22;;
15677;SDS011;7939;50.814;6.368;2024-01-30T07:39:02;10.80;;;7.60;;
15677;SDS011;7939;50.814;6.368;2024-01-30T07:41:29;10.52;;;7.20;;
15677;SDS011;7939;50.814;6.368;2024-01-30T07:43:56;8.60;;;6.43;;
15677;SDS011;7939;50.814;6.368;2024-01-30T07:46:22;8.55;;;6.18;;
15677;SDS011;7939;50.814;6.368;2024-01-30T07:48:50;8.55;;;7.40;;
15677;SDS011;7939;50.814;6.368;2024-01-30T07:51:17;10.30;;;7.18;;
15677;SDS011;7939;50.814;6.368;2024-01-30T07:53:44;13.30;;;7.35;;
15677;SDS011;7939;50.814;6.368;2024-01-30T07:56:11;9.20;;;7.00;;
15677;SDS011;7939;50.814;6.368;2024-01-30T07:58:37;10.18;;;7.15;;
15677;SDS011;7939;50.814;6.368;2024-01-30T08:01:04;9.98;;;6.97;;
15677;SDS011;7939;50.814;6.368;2024-01-30T08:03:31;9.38;;;7.22;;
15677;SDS011;7939;50.814;6.368;2024-01-30T08:05:59;9.85;;;6.93;;
15677;SDS011;7939;50.814;6.368;2024-01-30T08:08:25;10.82;;;7.07;;
15677;SDS011;7939;50.814;6.368;2024-01-30T08:10:53;11.77;;;7.68;;
15677;SDS011;7939;50.814;6.368;2024-01-30T08:13:20;8.73;;;6.38;;
15677;SDS011;7939;50.814;6.368;2024-01-30T08:15:46;8.35;;;6.50;;
15677;SDS011;7939;50.814;6.368;2024-01-30T08:18:13;10.48;;;6.95;;
15677;SDS011;7939;50.814;6.368;2024-01-30T08:20:40;10.95;;;6.95;;
15677;SDS011;7939;50.814;6.368;2024-01-30T08:23:08;9.88;;;6.97;;
15677;SDS011;7939;50.814;6.368;2024-01-30T08:25:35;10.65;;;7.07;;
15677;SDS011;7939;50.814;6.368;2024-01-30T08:28:03;10.02;;;6.55;;
15677;SDS011;7939;50.814;6.368;2024-01-30T08:30:30;11.80;;;7.95;;
15677;SDS011;7939;50.814;6.368;2024-01-30T08:32:56;10.18;;;6.55;;
15677;SDS011;7939;50.814;6.368;2024-01-30T08:35:23;10.20;;;6.85;;
15677;SDS011;7939;50.814;6.368;2024-01-30T08:37:50;11.63;;;6.78;;
15677;SDS011;7939;50.814;6.368;2024-01-30T08:40:18;9.43;;;6.13;;
15677;SDS011;7939;50.814;6.368;2024-01-30T08:42:45;7.93;;;6.47;;
15677;SDS011;7939;50.814;6.368;2024-01-30T08:45:11;14.23;;;7.53;;
15677;SDS011;7939;50.814;6.368;2024-01-30T08:47:38;11.98;;;7.88;;
15677;SDS011;7939;50.814;6.368;2024-01-30T08:50:06;12.60;;;7.72;;
15677;SDS011;7939;50.814;6.368;2024-01-30T08:52:34;7.90;;;6.90;;
15677;SDS011;7939;50.814;6.368;2024-01-30T08:55:00;12.30;;;6.35;;
15677;SDS011;7939;50.814;6.368;2024-01-30T08:57:29;10.73;;;7.75;;
15677;SDS011;7939;50.814;6.368;2024-01-30T08:59:56;10.40;;;6.53;;
15677;SDS011;7939;50.814;6.368;2024-01-30T09:02:23;9.18;;;6.70;;
15677;SDS011;7939;50.814;6.368;2024-01-30T09:04:49;11.77;;;7.15;;
15677;SDS011;7939;50.814;6.368;2024-01-30T09:07:16;9.35;;;7.68;;
15677;SDS011;7939;50.814;6.368;2024-01-30T09:09:43;11.13;;;7.68;;
15677;SDS011;7939;50.814;6.368;2024-01-30T09:12:10;11.38;;;7.30;;
15677;SDS011;7939;50.814;6.368;2024-01-30T09:14:38;13.63;;;7.65;;
15677;SDS011;7939;50.814;6.368;2024-01-30T09:17:05;12.20;;;8.02;;
15677;SDS011;7939;50.814;6.368;2024-01-30T09:19:32;12.18;;;7.63;;
15677;SDS011;7939;50.814;6.368;2024-01-30T09:21:59;9.23;;;6.43;;
15677;SDS011;7939;50.814;6.368;2024-01-30T09:24:26;14.13;;;7.25;;
15677;SDS011;7939;50.814;6.368;2024-01-30T09:26:53;11.55;;;7.78;;
15677;SDS011;7939;50.814;6.368;2024-01-30T09:29:20;9.10;;;6.68;;
15677;SDS011;7939;50.814;6.368;2024-01-30T09:31:48;12.25;;;7.47;;
15677;SDS011;7939;50.814;6.368;2024-01-30T09:34:15;9.88;;;6.28;;
15677;SDS011;7939;50.814;6.368;2024-01-30T09:36:42;9.23;;;5.50;;
15677;SDS011;7939;50.814;6.368;2024-01-30T09:39:08;7.90;;;5.28;;
15677;SDS011;7939;50.814;6.368;2024-01-30T09:41:36;8.07;;;5.65;;
15677;SDS011;7939;50.814;6.368;2024-01-30T09:44:11;11.07;;;6.05;;
15677;SDS011;7939;50.814;6.368;2024-01-30T09:46:38;6.63;;;4.47;;
15677;SDS011;7939;50.814;6.368;2024-01-30T09:49:06;14.00;;;5.00;;
15677;SDS011;7939;50.814;6.368;2024-01-30T09:51:35;7.43;;;5.10;;
15677;SDS011;7939;50.814;6.368;2024-01-30T09:54:02;9.60;;;6.10;;
15677;SDS011;7939;50.814;6.368;2024-01-30T09:56:29;8.13;;;4.45;;
15677;SDS011;7939;50.814;6.368;2024-01-30T09:58:56;8.82;;;4.80;;
15677;SDS011;7939;50.814;6.368;2024-01-30T10:01:22;8.50;;;4.90;;
15677;SDS011;7939;50.814;6.368;2024-01-30T10:03:50;7.18;;;4.57;;
15677;SDS011;7939;50.814;6.368;2024-01-30T10:06:19;5.20;;;4.68;;
15677;SDS011;7939;50.814;6.368;2024-01-30T10:08:47;6.88;;;4.93;;
15677;SDS011;7939;50.814;6.368;2024-01-30T10:11:13;10.63;;;4.68;;
15677;SDS011;7939;50.814;6.368;2024-01-30T10:13:40;7.97;;;5.50;;
15677;SDS011;7939;50.814;6.368;2024-01-30T10:16:06;7.45;;;4.75;;
15677;SDS011;7939;50.814;6.368;2024-01-30T10:18:33;8.60;;;4.63;;
15677;SDS011;7939;50.814;6.368;2024-01-30T10:21:00;8.77;;;4.90;;
15677;SDS011;7939;50.814;6.368;2024-01-30T10:23:30;8.07;;;5.10;;
15677;SDS011;7939;50.814;6.368;2024-01-30T10:25:57;5.82;;;4.30;;
15677;SDS011;7939;50.814;6.368;2024-01-30T10:28:26;6.43;;;4.75;;
15677;SDS011;7939;50.814;6.368;2024-01-30T10:30:58;7.38;;;4.45;;
15677;SDS011;7939;50.814;6.368;2024-01-30T10:33:25;8.50;;;4.35;;
15677;SDS011;7939;50.814;6.368;2024-01-30T10:35:53;7.03;;;4.32;;
15677;SDS011;7939;50.814;6.368;2024-01-30T10:38:24;9.50;;;4.57;;
15677;SDS011;7939;50.814;6.368;2024-01-30T10:40:55;8.77;;;4.60;;
15677;SDS011;7939;50.814;6.368;2024-01-30T10:43:24;6.25;;;4.60;;
15677;SDS011;7939;50.814;6.368;2024-01-30T10:45:56;7.82;;;5.13;;
15677;SDS011;7939;50.814;6.368;2024-01-30T10:48:29;8.85;;;4.60;;
15677;SDS011;7939;50.814;6.368;2024-01-30T10:50:59;8.10;;;5.20;;
15677;SDS011;7939;50.814;6.368;2024-01-30T10:53:26;7.50;;;5.07;;
15677;SDS011;7939;50.814;6.368;2024-01-30T10:55:54;9.20;;;5.72;;
15677;SDS011;7939;50.814;6.368;2024-01-30T10:58:24;8.15;;;4.80;;
15677;SDS011;7939;50.814;6.368;2024-01-30T11:00:51;11.15;;;6.40;;
15677;SDS011;7939;50.814;6.368;2024-01-30T11:03:18;8.07;;;4.60;;
15677;SDS011;7939;50.814;6.368;2024-01-30T11:05:48;9.40;;;5.25;;
15677;SDS011;7939;50.814;6.368;2024-01-30T11:08:22;9.07;;;5.85;;
15677;SDS011;7939;50.814;6.368;2024-01-30T11:10:54;8.90;;;5.65;;
15677;SDS011;7939;50.814;6.368;2024-01-30T11:13:27;9.05;;;5.90;;
15677;SDS011;7939;50.814;6.368;2024-01-30T11:15:54;8.50;;;6.05;;
15677;SDS011;7939;50.814;6.368;2024-01-30T11:18:24;8.40;;;6.20;;
15677;SDS011;7939;50.814;6.368;2024-01-30T11:20:52;10.07;;;6.80;;
15677;SDS011;7939;50.814;6.368;2024-01-30T11:23:18;8.68;;;5.85;;
15677;SDS011;7939;50.814;6.368;2024-01-30T11:25:48;7.25;;;5.15;;
15677;SDS011;7939;50.814;6.368;2024-01-30T11:28:16;12.10;;;6.05;;
15677;SDS011;7939;50.814;6.368;2024-01-30T11:30:43;9.43;;;6.03;;
15677;SDS011;7939;50.814;6.368;2024-01-30T11:33:13;11.63;;;6.22;;
15677;SDS011;7939;50.814;6.368;2024-01-30T11:35:41;14.15;;;7.72;;
15677;SDS011;7939;50.814;6.368;2024-01-30T11:38:09;12.77;;;6.63;;
15677;SDS011;7939;50.814;6.368;2024-01-30T11:40:37;10.05;;;6.07;;
15677;SDS011;7939;50.814;6.368;2024-01-30T11:43:05;9.60;;;6.03;;
15677;SDS011;7939;50.814;6.368;2024-01-30T11:45:34;8.90;;;5.97;;
15677;SDS011;7939;50.814;6.368;2024-01-30T11:48:02;9.27;;;6.22;;
15677;SDS011;7939;50.814;6.368;2024-01-30T11:50:29;9.75;;;6.40;;
15677;SDS011;7939;50.814;6.368;2024-01-30T11:52:57;11.65;;;6.60;;
15677;SDS011;7939;50.814;6.368;2024-01-30T11:55:24;7.47;;;5.63;;
15677;SDS011;7939;50.814;6.368;2024-01-30T11:57:51;10.38;;;5.65;;
15677;SDS011;7939;50.814;6.368;2024-01-30T12:00:21;10.35;;;6.70;;
15677;SDS011;7939;50.814;6.368;2024-01-30T12:02:53;11.43;;;6.20;;
15677;SDS011;7939;50.814;6.368;2024-01-30T12:05:22;14.95;;;6.75;;
15677;SDS011;7939;50.814;6.368;2024-01-30T12:07:49;16.42;;;7.03;;
15677;SDS011;7939;50.814;6.368;2024-01-30T12:10:16;12.13;;;6.72;;
15677;SDS011;7939;50.814;6.368;2024-01-30T12:12:44;7.57;;;5.85;;
15677;SDS011;7939;50.814;6.368;2024-01-30T12:15:12;10.40;;;7.07;;
15677;SDS011;7939;50.814;6.368;2024-01-30T12:17:39;9.93;;;7.05;;
15677;SDS011;7939;50.814;6.368;2024-01-30T12:20:08;14.20;;;6.35;;
15677;SDS011;7939;50.814;6.368;2024-01-30T12:22:36;10.32;;;5.80;;
15677;SDS011;7939;50.814;6.368;2024-01-30T12:25:04;14.20;;;6.57;;
15677;SDS011;7939;50.814;6.368;2024-01-30T12:27:31;12.60;;;6.40;;
15677;SDS011;7939;50.814;6.368;2024-01-30T12:29:58;9.43;;;6.55;;
15677;SDS011;7939;50.814;6.368;2024-01-30T12:32:25;11.52;;;6.50;;
15677;SDS011;7939;50.814;6.368;2024-01-30T12:34:54;10.18;;;6.10;;
15677;SDS011;7939;50.814;6.368;2024-01-30T12:37:23;12.57;;;5.95;;
15677;SDS011;7939;50.814;6.368;2024-01-30T12:39:51;8.57;;;5.30;;
15677;SDS011;7939;50.814;6.368;2024-01-30T12:42:19;10.95;;;5.80;;
15677;SDS011;7939;50.814;6.368;2024-01-30T12:44:46;10.82;;;5.88;;
15677;SDS011;7939;50.814;6.368;2024-01-30T12:47:13;9.55;;;6.10;;
15677;SDS011;7939;50.814;6.368;2024-01-30T12:49:41;11.13;;;5.93;;
15677;SDS011;7939;50.814;6.368;2024-01-30T12:52:08;13.43;;;5.82;;
15677;SDS011;7939;50.814;6.368;2024-01-30T12:54:36;7.80;;;5.13;;
15677;SDS011;7939;50.814;6.368;2024-01-30T12:57:03;10.02;;;6.15;;
15677;SDS011;7939;50.814;6.368;2024-01-30T12:59:30;9.15;;;6.50;;
15677;SDS011;7939;50.814;6.368;2024-01-30T13:01:57;10.85;;;6.43;;
15677;SDS011;7939;50.814;6.368;2024-01-30T13:04:25;8.93;;;6.00;;
15677;SDS011;7939;50.814;6.368;2024-01-30T13:06:52;10.90;;;6.50;;
15677;SDS011;7939;50.814;6.368;2024-01-30T13:09:18;9.95;;;6.32;;
15677;SDS011;7939;50.814;6.368;2024-01-30T13:11:47;8.15;;;6.07;;
15677;SDS011;7939;50.814;6.368;2024-01-30T13:14:13;12.82;;;6.35;;
15677;SDS011;7939;50.814;6.368;2024-01-30T13:16:40;12.00;;;6.75;;
15677;SDS011;7939;50.814;6.368;2024-01-30T13:19:07;10.07;;;5.93;;
15677;SDS011;7939;50.814;6.368;2024-01-30T13:21:33;9.85;;;6.68;;
15677;SDS011;7939;50.814;6.368;2024-01-30T13:24:00;10.25;;;5.53;;
15677;SDS011;7939;50.814;6.368;2024-01-30T13:26:27;7.80;;;6.10;;
15677;SDS011;7939;50.814;6.368;2024-01-30T13:28:55;10.50;;;6.50;;
15677;SDS011;7939;50.814;6.368;2024-01-30T13:31:21;12.25;;;6.05;;
15677;SDS011;7939;50.814;6.368;2024-01-30T13:33:48;9.18;;;6.55;;
15677;SDS011;7939;50.814;6.368;2024-01-30T13:36:15;9.38;;;6.18;;
15677;SDS011;7939;50.814;6.368;2024-01-30T13:38:42;11.23;;;6.68;;
15677;SDS011;7939;50.814;6.368;2024-01-30T13:41:08;11.10;;;6.43;;
15677;SDS011;7939;50.814;6.368;2024-01-30T13:43:35;10.02;;;6.95;;
15677;SDS011;7939;50.814;6.368;2024-01-30T13:46:03;10.43;;;6.43;;
15677;SDS011;7939;50.814;6.368;2024-01-30T13:48:30;10.35;;;6.82;;
15677;SDS011;7939;50.814;6.368;2024-01-30T13:50:58;11.48;;;7.43;;
15677;SDS011;7939;50.814;6.368;2024-01-30T13:53:24;13.60;;;6.53;;
15677;SDS011;7939;50.814;6.368;2024-01-30T13:55:51;8.75;;;6.30;;
15677;SDS011;7939;50.814;6.368;2024-01-30T13:58:18;12.68;;;6.78;;
15677;SDS011;7939;50.814;6.368;2024-01-30T14:00:45;12.93;;;7.10;;
15677;SDS011;7939;50.814;6.368;2024-01-30T14:03:13;11.52;;;6.35;;
15677;SDS011;7939;50.814;6.368;2024-01-30T14:05:39;13.98;;;6.40;;
15677;SDS011;7939;50.814;6.368;2024-01-30T14:08:06;11.50;;;6.80;;
15677;SDS011;7939;50.814;6.368;2024-01-30T14:10:34;9.57;;;6.88;;
15677;SDS011;7939;50.814;6.368;2024-01-30T14:13:00;10.95;;;7.20;;
15677;SDS011;7939;50.814;6.368;2024-01-30T14:15:27;9.73;;;6.60;;
15677;SDS011;7939;50.814;6.368;2024-01-30T14:17:54;14.38;;;7.70;;
15677;SDS011;7939;50.814;6.368;2024-01-30T14:20:21;11.40;;;6.80;;
15677;SDS011;7939;50.814;6.368;2024-01-30T14:22:48;10.07;;;7.40;;
15677;SDS011;7939;50.814;6.368;2024-01-30T14:25:14;12.20;;;6.93;;
15677;SDS011;7939;50.814;6.368;2024-01-30T14:27:42;11.38;;;7.68;;
15677;SDS011;7939;50.814;6.368;2024-01-30T14:30:09;12.68;;;7.50;;
15677;SDS011;7939;50.814;6.368;2024-01-30T14:32:36;13.02;;;7.57;;
15677;SDS011;7939;50.814;6.368;2024-01-30T14:35:05;13.68;;;8.95;;
15677;SDS011;7939;50.814;6.368;2024-01-30T14:37:35;10.68;;;7.05;;
15677;SDS011;7939;50.814;6.368;2024-01-30T14:40:02;11.77;;;7.47;;
15677;SDS011;7939;50.814;6.368;2024-01-30T14:42:29;10.35;;;7.30;;
15677;SDS011;7939;50.814;6.368;2024-01-30T14:44:56;10.13;;;7.72;;
15677;SDS011;7939;50.814;6.368;2024-01-30T14:47:23;10.07;;;7.25;;
15677;SDS011;7939;50.814;6.368;2024-01-30T14:49:50;11.43;;;6.82;;
15677;SDS011;7939;50.814;6.368;2024-01-30T14:52:17;12.80;;;6.78;;
15677;SDS011;7939;50.814;6.368;2024-01-30T14:54:45;9.65;;;7.00;;
15677;SDS011;7939;50.814;6.368;2024-01-30T14:57:12;12.77;;;8.10;;